Aérodrome :
LOGIN :

S'inscrire | Disclaimer

   EN    FR    IT 

 










Légende :    VFR   VFR Marginal   IFR   IFR Intensif   IFR Très Intensif
Visi : 
Plafond : 
>= 8 km
>= 3000ft
5 à 8 km
1000 à 3000 ft
1500m à 5 km
500 à 1000 ft
800 à 1500m
200 à 500 ft
< 800m
< 200 ft
Symboles :   Orages  Brouillard  Fortes neiges  Fortes précipitations  Vent > 20 kt
SIGMETs :   Divers  Orages  Givrage  Turbulence  Onde Orograph.  Cendres Volcan.






- Altitude de l'aérodrome : 74 ft
- Code IATA : LRH


LFBH - La Rochelle Ile de Ré

DERNIER METAR :
  • 171900Z AUTO 33002KT CAVOK 05/03 Q1030 TEMPO 3000 BR

METARs EXPIRÉS :
  • 171830Z AUTO 35001KT CAVOK 05/03 Q1030 TEMPO 3000 BR
  • 171800Z AUTO 34002KT 9999 FEW037 06/03 Q1030 NOSIG
  • 171730Z AUTO 35003KT 9999 FEW036 07/04 Q1030 NOSIG
  • 171700Z AUTO 34003KT CAVOK 07/04 Q1030 NOSIG
  • 171630Z AUTO 35003KT CAVOK 08/04 Q1029 NOSIG

TAF TAF LFBH
Valide du 17 à 18h jusqu'au 18 à 18h UTC


171700Z 1718/1818 33006KT CAVOK
PROB40 1720/1804 3000 BR
PROB30 1800/1804 0800 FG
BECMG 1804/1806 0800 FG VV///
TEMPO 1806/1809 0400
BECMG 1811/1813 17010KT CAVOK
ATIS : +33 5 46 00 13 92



MET'MAP, la Météo Aéronautique d'un coup d'oeil ! - Copyright ORBIFLY Décembre 2007 - Disclaimer

ORBIFLY MET'MAP TEAM :

Programmation & Développement : Alexandra Zaïnal
Sur une idée originale de : Baudouin d'Aumeries
Assistance à la programmation : Marc-Olivier Méhu
Soutien technique & logistique : Manuel Goepfert

Contact : metmap@orbifly.com




SOURCES & CREDITS :

   NOAA